createdAt,value
2023-03-16T00:02:21.928Z,31.13
2023-03-16T00:04:50.596Z,37.45
2023-03-16T00:07:19.199Z,33.57
2023-03-16T00:09:47.720Z,21.58
2023-03-16T00:12:19.808Z,30.55
2023-03-16T00:14:50.471Z,31.10
2023-03-16T00:17:21.279Z,30.70
2023-03-16T00:19:54.793Z,28.42
2023-03-16T00:22:24.718Z,26.75
2023-03-16T00:24:53.801Z,29.67
2023-03-16T00:27:24.871Z,28.08
2023-03-16T00:29:56.820Z,21.55
2023-03-16T00:32:27.575Z,27.55
2023-03-16T00:34:56.771Z,25.90
2023-03-16T00:37:26.894Z,28.45
2023-03-16T00:39:56.719Z,23.23
2023-03-16T00:42:28.503Z,26.38
2023-03-16T00:44:57.731Z,26.20
2023-03-16T00:47:28.335Z,32.53
2023-03-16T00:49:57.365Z,24.95
2023-03-16T00:52:27.466Z,22.40
2023-03-16T00:54:57.386Z,27.23
2023-03-16T00:57:27.775Z,25.30
2023-03-16T00:59:56.269Z,28.15
2023-03-16T01:02:27.381Z,26.48
2023-03-16T01:04:55.816Z,30.85
2023-03-16T01:07:24.388Z,29.80
2023-03-16T01:09:52.858Z,26.30
2023-03-16T01:12:21.772Z,26.77
2023-03-16T01:14:51.615Z,24.65
2023-03-16T01:17:20.184Z,29.42
2023-03-16T01:19:48.608Z,23.55
2023-03-16T01:22:17.381Z,23.00
2023-03-16T01:24:46.793Z,21.33
2023-03-16T01:27:15.984Z,25.80
2023-03-16T01:29:44.623Z,27.27
2023-03-16T01:32:14.961Z,33.60
2023-03-16T01:34:43.453Z,23.98
2023-03-16T01:37:11.893Z,19.73
2023-03-16T01:39:40.321Z,31.38
2023-03-16T01:42:09.158Z,22.27
2023-03-16T01:44:56.084Z,28.05
2023-03-16T01:47:25.847Z,20.00
2023-03-16T01:49:56.967Z,25.27
2023-03-16T01:52:28.690Z,24.55
2023-03-16T01:55:00.579Z,22.35
2023-03-16T01:57:32.523Z,20.42
2023-03-16T02:00:09.746Z,21.85
2023-03-16T02:02:44.160Z,20.95
2023-03-16T02:05:17.010Z,26.52
2023-03-16T02:07:49.403Z,20.95
2023-03-16T02:10:20.734Z,21.08
2023-03-16T02:12:49.181Z,22.40
2023-03-16T02:15:17.663Z,23.80
2023-03-16T02:17:49.323Z,18.95
2023-03-16T02:20:32.718Z,21.13
2023-03-16T02:23:01.873Z,22.38
2023-03-16T02:25:37.616Z,19.27
2023-03-16T02:28:13.411Z,21.15
2023-03-16T02:30:43.545Z,21.25
2023-03-16T02:33:12.660Z,20.92
2023-03-16T02:35:41.157Z,18.35
2023-03-16T02:38:09.868Z,19.77
2023-03-16T02:40:39.049Z,15.70
2023-03-16T02:43:11.935Z,23.63
2023-03-16T02:45:46.900Z,22.52
2023-03-16T02:48:22.259Z,17.02
2023-03-16T02:50:53.746Z,20.23
2023-03-16T02:53:22.608Z,17.92
2023-03-16T02:55:51.326Z,22.55
2023-03-16T02:58:19.981Z,23.23
2023-03-16T03:00:49.786Z,23.83
2023-03-16T03:03:18.815Z,25.02
2023-03-16T03:05:47.561Z,25.85
2023-03-16T03:08:16.361Z,23.97
2023-03-16T03:10:44.822Z,21.77
2023-03-16T03:13:13.345Z,28.10
2023-03-16T03:15:41.782Z,33.80
2023-03-16T03:18:11.766Z,26.02
2023-03-16T03:20:40.238Z,33.25
2023-03-16T03:23:08.726Z,26.35
2023-03-16T03:25:37.232Z,26.65
2023-03-16T03:28:06.487Z,32.47
2023-03-16T03:30:34.983Z,23.38
2023-03-16T03:33:03.540Z,31.63
2023-03-16T03:35:33.560Z,31.40
2023-03-16T03:38:02.070Z,25.70
2023-03-16T03:40:30.769Z,26.52
2023-03-16T03:42:59.351Z,26.10
2023-03-16T03:45:28.033Z,24.63
2023-03-16T03:47:56.821Z,27.05
2023-03-16T03:50:25.377Z,24.70
2023-03-16T03:52:55.322Z,22.07
2023-03-16T03:55:23.767Z,24.50
2023-03-16T03:57:52.346Z,25.17
2023-03-16T04:00:22.978Z,24.45
2023-03-16T04:02:51.516Z,25.02
2023-03-16T04:05:20.142Z,25.33
2023-03-16T04:07:50.724Z,19.08
2023-03-16T04:10:20.938Z,27.00
2023-03-16T04:12:49.427Z,27.85
2023-03-16T04:15:18.043Z,27.30
2023-03-16T04:17:46.557Z,24.02
2023-03-16T04:20:19.525Z,21.70
2023-03-16T04:22:48.583Z,26.20
2023-03-16T04:25:18.227Z,24.45
2023-03-16T04:27:48.016Z,23.13
2023-03-16T04:30:16.846Z,23.67
2023-03-16T04:32:45.507Z,15.77
2023-03-16T04:35:15.546Z,19.30
2023-03-16T04:37:44.064Z,29.98
2023-03-16T04:40:21.115Z,26.50
2023-03-16T04:42:50.905Z,28.38
2023-03-16T04:45:19.503Z,32.03
2023-03-16T04:47:49.620Z,28.17
2023-03-16T04:50:18.114Z,30.50
2023-03-16T04:52:46.582Z,25.75
2023-03-16T04:55:15.087Z,30.35
2023-03-16T04:57:43.495Z,29.77
2023-03-16T05:00:19.183Z,25.70
2023-03-16T05:02:48.338Z,22.85
2023-03-16T05:05:17.334Z,25.20
2023-03-16T05:07:47.532Z,32.75
2023-03-16T05:10:18.763Z,26.80
2023-03-16T05:12:47.336Z,34.15
2023-03-16T05:15:17.528Z,34.53
2023-03-16T05:17:46.646Z,26.45
2023-03-16T05:20:16.540Z,37.40
2023-03-16T05:22:48.089Z,36.40
2023-03-16T05:25:17.607Z,37.85
2023-03-16T05:27:48.114Z,43.50
2023-03-16T05:30:18.686Z,44.72
2023-03-16T05:32:47.777Z,38.28
2023-03-16T05:35:16.445Z,42.75
2023-03-16T05:40:37.260Z,50.47
2023-03-16T05:43:05.876Z,45.22
2023-03-16T05:45:35.640Z,38.13
2023-03-16T05:48:05.854Z,44.05
2023-03-16T05:50:34.579Z,44.42
2023-03-16T05:53:03.856Z,53.77
2023-03-16T05:55:32.319Z,50.60
2023-03-16T05:58:00.949Z,63.53
2023-03-16T06:00:30.306Z,62.33
2023-03-16T06:03:01.423Z,58.63
2023-03-16T06:05:32.023Z,74.85
2023-03-16T06:08:00.466Z,67.05
2023-03-16T06:10:29.134Z,83.32
2023-03-16T06:12:59.850Z,77.05
2023-03-16T06:15:30.469Z,83.78
2023-03-16T06:18:00.358Z,89.85
2023-03-16T06:20:29.074Z,87.55
2023-03-16T06:22:58.226Z,85.82
2023-03-16T06:25:26.613Z,82.82
2023-03-16T06:27:55.335Z,95.43
2023-03-16T06:30:23.783Z,104.57
2023-03-16T06:32:52.275Z,111.28
2023-03-16T06:35:22.171Z,113.30
2023-03-16T06:37:50.573Z,117.13
2023-03-16T06:40:19.167Z,110.95
2023-03-16T06:42:48.263Z,103.90
2023-03-16T06:45:17.464Z,98.40
2023-03-16T06:47:45.902Z,95.97
2023-03-16T06:50:14.553Z,92.82
2023-03-16T06:52:44.510Z,92.55
2023-03-16T06:55:14.455Z,81.60
2023-03-16T06:57:43.227Z,84.50
2023-03-16T07:00:15.307Z,92.77
2023-03-16T07:02:43.952Z,78.00
2023-03-16T07:05:14.181Z,65.30
2023-03-16T07:07:45.404Z,66.30
2023-03-16T07:10:15.477Z,49.22
2023-03-16T07:12:44.251Z,55.38
2023-03-16T07:15:13.327Z,44.58
2023-03-16T07:17:42.583Z,40.30
2023-03-16T07:20:12.733Z,38.00
2023-03-16T07:22:42.710Z,78.75
2023-03-16T07:25:13.940Z,38.70
2023-03-16T07:27:43.862Z,35.50
2023-03-16T07:30:14.470Z,33.28
2023-03-16T07:33:07.723Z,28.30
2023-03-16T07:35:36.297Z,23.77
2023-03-16T07:38:04.823Z,22.67
2023-03-16T07:40:35.067Z,29.02
2023-03-16T07:43:04.221Z,29.05
2023-03-16T07:45:32.785Z,24.50
2023-03-16T07:48:01.712Z,18.15
2023-03-16T07:50:30.555Z,18.83
2023-03-16T07:52:59.483Z,17.00
2023-03-16T07:55:28.284Z,15.30
2023-03-16T07:57:58.175Z,19.40
2023-03-16T08:02:57.453Z,17.60
2023-03-16T08:05:27.980Z,12.20
2023-03-16T08:07:57.216Z,13.60
2023-03-16T08:10:25.948Z,16.00
2023-03-16T08:12:54.681Z,14.38
2023-03-16T08:15:24.965Z,10.82
2023-03-16T08:17:54.092Z,8.27
2023-03-16T08:20:22.459Z,10.40
2023-03-16T08:22:50.884Z,19.73
2023-03-16T08:25:20.337Z,11.20
2023-03-16T08:27:49.428Z,14.40
2023-03-16T08:30:18.536Z,11.63
2023-03-16T08:32:48.391Z,8.05
2023-03-16T08:37:46.256Z,7.80
2023-03-16T08:40:16.246Z,12.15
2023-03-16T08:42:45.060Z,12.75
2023-03-16T08:45:14.868Z,14.23
2023-03-16T08:50:15.446Z,7.95
2023-03-16T08:52:44.095Z,13.13
2023-03-16T08:55:13.233Z,13.10
2023-03-16T08:57:41.708Z,10.48
2023-03-16T09:00:14.658Z,10.98
2023-03-16T09:02:44.085Z,11.80
2023-03-16T09:05:15.874Z,9.13
2023-03-16T09:07:44.333Z,11.45
2023-03-16T09:10:16.041Z,9.80
2023-03-16T09:12:45.280Z,13.80
2023-03-16T09:15:14.894Z,10.20
2023-03-16T09:17:45.236Z,11.98
2023-03-16T09:20:22.670Z,9.77
2023-03-16T09:22:55.716Z,12.98
2023-03-16T09:25:25.473Z,13.95
2023-03-16T09:30:22.950Z,7.22
2023-03-16T09:32:51.941Z,10.73
2023-03-16T09:35:21.806Z,11.43
2023-03-16T09:40:35.857Z,15.70
2023-03-16T09:46:07.649Z,7.45
2023-03-16T09:48:38.840Z,7.10
2023-03-16T09:51:13.556Z,7.68
2023-03-16T09:53:42.050Z,4.53
2023-03-16T09:57:05.320Z,7.85
2023-03-16T09:59:33.773Z,6.55
2023-03-16T10:02:31.927Z,4.13
2023-03-16T10:05:09.765Z,5.63
2023-03-16T10:11:01.829Z,3.60
2023-03-16T10:13:38.692Z,4.53
2023-03-16T10:16:12.563Z,5.90
2023-03-16T10:18:44.843Z,9.32
2023-03-16T10:21:16.894Z,3.42
2023-03-16T10:23:48.572Z,6.00
2023-03-16T10:26:22.928Z,6.43
2023-03-16T10:28:52.879Z,6.35
2023-03-16T10:33:55.703Z,5.43
2023-03-16T10:36:32.147Z,5.63
2023-03-16T10:39:04.889Z,5.05
2023-03-16T10:41:35.261Z,5.35
2023-03-16T10:44:11.905Z,6.45
2023-03-16T10:46:42.818Z,2.78
2023-03-16T10:49:23.366Z,5.85
2023-03-16T10:51:52.942Z,4.75
2023-03-16T10:54:29.436Z,3.08
2023-03-16T10:56:58.626Z,6.47
2023-03-16T10:59:34.222Z,4.53
2023-03-16T11:02:05.409Z,4.85
2023-03-16T11:04:34.194Z,7.25
2023-03-16T11:07:02.617Z,4.32
2023-03-16T11:09:35.508Z,6.05
2023-03-16T11:12:15.441Z,3.53
2023-03-16T11:14:49.031Z,8.35
2023-03-16T11:17:22.377Z,5.20
2023-03-16T11:19:54.455Z,8.93
2023-03-16T11:22:25.500Z,7.75
2023-03-16T11:25:02.132Z,7.47
2023-03-16T11:27:37.742Z,3.88
2023-03-16T11:30:14.978Z,8.63
2023-03-16T11:32:53.315Z,8.52
2023-03-16T11:35:25.795Z,6.35
2023-03-16T11:38:12.026Z,5.88
2023-03-16T11:40:52.628Z,4.22
2023-03-16T11:43:53.133Z,6.43
2023-03-16T11:46:25.455Z,5.15
2023-03-16T11:49:24.526Z,6.68
2023-03-16T11:52:05.476Z,5.20
2023-03-16T11:54:45.078Z,4.90
2023-03-16T11:57:31.399Z,4.05
2023-03-16T12:00:09.774Z,5.38
2023-03-16T12:02:55.426Z,5.25
2023-03-16T12:05:46.055Z,8.00
2023-03-16T12:08:38.490Z,6.25
2023-03-16T12:11:13.109Z,5.90
2023-03-16T12:13:57.216Z,5.05
2023-03-16T12:16:39.041Z,6.30
2023-03-16T12:19:22.864Z,6.35
2023-03-16T12:22:02.245Z,8.05
2023-03-16T12:24:36.451Z,9.95
2023-03-16T12:27:06.874Z,5.63
2023-03-16T12:29:43.760Z,4.85
2023-03-16T12:32:18.846Z,8.30
2023-03-16T12:34:54.473Z,5.28
2023-03-16T12:37:35.937Z,8.70
2023-03-16T12:40:16.000Z,4.97
2023-03-16T12:42:57.886Z,6.10
2023-03-16T12:45:37.076Z,5.95
2023-03-16T12:48:17.102Z,5.22
2023-03-16T12:50:53.193Z,6.32
2023-03-16T12:53:43.576Z,5.53
2023-03-16T12:56:15.165Z,9.35
2023-03-16T12:58:47.026Z,6.13
2023-03-16T13:01:20.069Z,6.13
2023-03-16T13:03:50.946Z,4.53
2023-03-16T13:06:22.929Z,11.32
2023-03-16T13:08:56.797Z,5.50
2023-03-16T13:11:25.306Z,5.15
2023-03-16T13:14:08.218Z,5.35
2023-03-16T13:16:39.225Z,5.43
2023-03-16T13:19:28.185Z,4.95
2023-03-16T13:22:06.122Z,3.67
2023-03-16T13:24:40.919Z,5.07
2023-03-16T13:27:21.295Z,6.28
2023-03-16T13:29:58.232Z,5.93
2023-03-16T13:32:32.574Z,8.45
2023-03-16T13:35:03.256Z,5.13
2023-03-16T13:37:32.883Z,4.03
2023-03-16T13:40:04.288Z,3.97
2023-03-16T13:42:34.074Z,3.35
2023-03-16T13:45:14.273Z,9.30
2023-03-16T13:47:45.990Z,3.58
2023-03-16T13:50:15.948Z,5.35
2023-03-16T13:52:51.494Z,4.82
2023-03-16T13:55:27.117Z,4.00
2023-03-16T13:57:55.718Z,4.97
2023-03-16T14:00:26.417Z,4.68
2023-03-16T14:02:57.686Z,4.75
2023-03-16T14:05:28.584Z,11.30
2023-03-16T14:08:00.523Z,3.80
2023-03-16T14:10:33.242Z,4.78
2023-03-16T14:13:09.899Z,6.70
2023-03-16T14:15:39.218Z,4.20
2023-03-16T14:18:16.554Z,5.00
2023-03-16T14:20:45.020Z,7.45
2023-03-16T14:23:21.954Z,5.13
2023-03-16T14:25:50.823Z,7.68
2023-03-16T14:28:22.388Z,6.57
2023-03-16T14:30:54.018Z,6.40
2023-03-16T14:33:30.812Z,5.47
2023-03-16T14:36:00.823Z,5.60
2023-03-16T14:38:32.150Z,7.05
2023-03-16T14:41:05.359Z,7.10
2023-03-16T14:43:36.640Z,8.23
2023-03-16T14:46:07.265Z,6.05
2023-03-16T14:48:38.696Z,4.57
2023-03-16T14:51:07.227Z,6.57
2023-03-16T14:53:35.769Z,5.10
2023-03-16T14:56:04.274Z,5.80
2023-03-16T14:58:34.784Z,7.13
2023-03-16T15:01:03.901Z,7.65
2023-03-16T15:03:35.221Z,6.37
2023-03-16T15:06:05.507Z,5.07
2023-03-16T15:08:42.121Z,8.63
2023-03-16T15:11:10.890Z,4.70
2023-03-16T15:14:03.781Z,6.10
2023-03-16T15:16:32.773Z,8.20
2023-03-16T15:19:01.625Z,6.17
2023-03-16T15:21:31.492Z,7.75
2023-03-16T15:26:30.582Z,5.75
2023-03-16T15:28:59.433Z,9.00
2023-03-16T15:31:27.950Z,5.90
2023-03-16T15:33:56.398Z,7.45
2023-03-16T15:36:25.115Z,7.50
2023-03-16T15:38:56.823Z,6.38
2023-03-16T15:41:30.069Z,13.45
2023-03-16T15:44:03.281Z,5.93
2023-03-16T15:46:31.798Z,7.45
2023-03-16T15:49:00.262Z,10.30
2023-03-16T15:51:30.734Z,6.97
2023-03-16T15:54:03.217Z,8.55
2023-03-16T15:56:38.770Z,6.70
2023-03-16T15:59:17.974Z,4.55
2023-03-16T16:01:48.396Z,6.82
2023-03-16T16:04:19.814Z,5.70
2023-03-16T16:06:49.525Z,13.35
2023-03-16T16:09:19.311Z,7.18
2023-03-16T16:11:48.986Z,7.20
2023-03-16T16:14:20.535Z,6.70
2023-03-16T16:16:49.216Z,8.48
2023-03-16T16:19:18.822Z,6.80
2023-03-16T16:21:47.916Z,14.10
2023-03-16T16:24:18.210Z,9.67
2023-03-16T16:26:54.216Z,8.48
2023-03-16T16:29:26.653Z,7.93
2023-03-16T16:31:55.510Z,6.60
2023-03-16T16:34:25.598Z,7.13
2023-03-16T16:36:54.909Z,10.18
2023-03-16T16:39:23.542Z,15.57
2023-03-16T16:41:56.476Z,8.88
2023-03-16T16:44:28.146Z,8.90
2023-03-16T16:46:57.349Z,6.70
2023-03-16T16:49:27.921Z,14.20
2023-03-16T16:51:57.293Z,10.88
2023-03-16T16:54:27.285Z,7.03
2023-03-16T16:56:58.968Z,9.65
2023-03-16T16:59:31.354Z,9.27
2023-03-16T17:02:01.242Z,8.57
2023-03-16T17:07:01.994Z,11.90
2023-03-16T17:09:32.059Z,9.73
2023-03-16T17:14:31.212Z,9.43
2023-03-16T17:17:02.514Z,11.73
2023-03-16T17:19:31.627Z,7.78
2023-03-16T17:22:00.070Z,9.67
2023-03-16T17:24:28.666Z,8.90
2023-03-16T17:26:59.867Z,14.15
2023-03-16T17:29:32.022Z,11.35
2023-03-16T17:32:01.194Z,9.45
2023-03-16T17:34:33.298Z,12.18
2023-03-16T17:37:02.318Z,8.32
2023-03-16T17:39:32.622Z,8.77
2023-03-16T17:42:03.385Z,12.77
2023-03-16T17:44:35.521Z,11.23
2023-03-16T17:47:04.131Z,13.55
2023-03-16T17:49:32.674Z,14.40
2023-03-16T17:52:02.174Z,9.35
2023-03-16T17:54:31.464Z,41.70
2023-03-16T17:56:59.873Z,18.63
2023-03-16T17:59:28.549Z,19.42
2023-03-16T18:01:58.272Z,27.90
2023-03-16T18:04:27.664Z,41.92
2023-03-16T18:06:56.704Z,23.77
2023-03-16T18:09:28.655Z,31.80
2023-03-16T18:11:57.240Z,22.15
2023-03-16T18:14:35.221Z,24.58
2023-03-16T18:17:14.338Z,23.48
2023-03-16T18:19:43.890Z,22.17
2023-03-16T18:22:19.268Z,35.00
2023-03-16T18:24:48.443Z,31.90
2023-03-16T18:27:17.267Z,26.52
2023-03-16T18:29:46.923Z,25.15
2023-03-16T18:32:23.218Z,29.17
2023-03-16T18:34:52.726Z,27.27
2023-03-16T18:37:23.969Z,43.10
2023-03-16T18:39:54.116Z,29.90
2023-03-16T18:42:24.156Z,38.92
2023-03-16T18:44:52.843Z,31.02
2023-03-16T18:47:24.607Z,51.13
2023-03-16T18:49:54.369Z,29.55
2023-03-16T18:52:25.319Z,39.85
2023-03-16T18:54:53.757Z,25.05
2023-03-16T18:57:23.985Z,39.30
2023-03-16T18:59:52.973Z,30.15
2023-03-16T19:02:34.751Z,24.20
2023-03-16T19:05:06.296Z,34.13
2023-03-16T19:07:37.062Z,30.42
2023-03-16T19:10:13.766Z,24.67
2023-03-16T19:12:42.094Z,39.42
2023-03-16T19:15:18.673Z,23.75
2023-03-16T19:17:48.708Z,30.88
2023-03-16T19:20:19.388Z,24.45
2023-03-16T19:22:49.694Z,25.23
2023-03-16T19:25:21.077Z,24.83
2023-03-16T19:27:49.725Z,19.65
2023-03-16T19:30:24.542Z,26.38
2023-03-16T19:32:56.417Z,28.67
2023-03-16T19:35:40.086Z,35.15
2023-03-16T19:38:15.364Z,30.15
2023-03-16T19:40:44.032Z,19.30
2023-03-16T19:43:18.575Z,16.80
2023-03-16T19:45:48.580Z,18.60
2023-03-16T19:48:21.097Z,12.93
2023-03-16T19:50:50.665Z,17.75
2023-03-16T19:53:20.672Z,15.25
2023-03-16T19:55:50.540Z,12.23
2023-03-16T20:00:49.709Z,11.00
2023-03-16T20:03:19.697Z,15.50
2023-03-16T20:05:48.083Z,16.02
2023-03-16T20:08:24.515Z,21.00
2023-03-16T20:10:55.251Z,16.45
2023-03-16T20:13:25.557Z,11.95
2023-03-16T20:15:54.271Z,15.68
2023-03-16T20:18:24.747Z,16.98
2023-03-16T20:20:53.143Z,15.65
2023-03-16T20:23:24.531Z,18.70
2023-03-16T20:25:55.214Z,21.02
2023-03-16T20:28:25.672Z,15.80
2023-03-16T20:30:54.615Z,20.10
2023-03-16T20:33:26.652Z,18.40
2023-03-16T20:35:55.420Z,14.43
2023-03-16T20:38:24.474Z,18.13
2023-03-16T20:40:55.918Z,19.13
2023-03-16T20:43:27.207Z,19.63
2023-03-16T20:45:57.862Z,15.00
2023-03-16T20:48:28.437Z,21.73
2023-03-16T20:50:59.887Z,21.90
2023-03-16T20:53:28.590Z,16.63
2023-03-16T20:55:57.673Z,22.77
2023-03-16T20:58:28.106Z,19.90
2023-03-16T21:00:57.850Z,19.58
2023-03-16T21:08:52.401Z,21.27
2023-03-16T21:11:24.104Z,22.70
2023-03-16T21:13:53.804Z,23.77
2023-03-16T21:16:22.734Z,25.63
2023-03-16T21:18:52.574Z,16.40
2023-03-16T21:23:50.439Z,26.08
2023-03-16T21:26:22.168Z,25.47
2023-03-16T21:28:56.518Z,17.98
2023-03-16T21:31:25.700Z,26.77
2023-03-16T21:33:55.939Z,19.13
2023-03-16T21:36:26.614Z,22.27
2023-03-16T21:38:56.354Z,18.20
2023-03-16T21:43:54.426Z,21.30
2023-03-16T21:46:25.439Z,18.45
2023-03-16T21:48:56.660Z,22.05
2023-03-16T21:51:30.364Z,19.58
2023-03-16T21:53:59.043Z,19.98
2023-03-16T21:56:27.863Z,20.77
2023-03-16T21:58:56.491Z,23.17
2023-03-16T22:01:27.590Z,17.50
2023-03-16T22:04:01.016Z,17.42
2023-03-16T22:06:30.655Z,19.63
2023-03-16T22:09:00.853Z,19.42
2023-03-16T22:11:31.366Z,21.20
2023-03-16T22:14:01.344Z,18.10
2023-03-16T22:16:35.585Z,17.30
2023-03-16T22:19:05.906Z,20.05
2023-03-16T22:21:36.562Z,22.65
2023-03-16T22:24:07.417Z,25.90
2023-03-16T22:26:35.824Z,19.88
2023-03-16T22:29:15.775Z,16.75
2023-03-16T22:31:44.277Z,17.85
2023-03-16T22:34:25.902Z,18.23
2023-03-16T22:36:54.658Z,17.85
2023-03-16T22:39:23.222Z,25.55
2023-03-16T22:41:52.170Z,23.17
2023-03-16T22:44:23.447Z,20.00
2023-03-16T22:46:52.028Z,19.65
2023-03-16T22:49:27.417Z,18.63
2023-03-16T22:51:57.974Z,21.98
2023-03-16T22:54:29.520Z,20.80
2023-03-16T22:56:57.998Z,18.00
2023-03-16T22:59:28.238Z,19.20
2023-03-16T23:01:57.203Z,19.02
2023-03-16T23:04:30.142Z,24.90
2023-03-16T23:07:11.607Z,17.63
2023-03-16T23:09:44.907Z,15.32
2023-03-16T23:12:19.110Z,18.85
2023-03-16T23:14:48.259Z,18.52
2023-03-16T23:17:24.315Z,21.88
2023-03-16T23:19:54.185Z,18.77
2023-03-16T23:24:50.713Z,17.65
2023-03-16T23:27:21.489Z,17.75
2023-03-16T23:29:50.181Z,15.02
2023-03-16T23:32:18.813Z,14.10
2023-03-16T23:34:47.247Z,14.55
2023-03-16T23:37:17.497Z,16.20
2023-03-16T23:39:45.928Z,11.98
2023-03-16T23:42:14.387Z,12.35
2023-03-16T23:44:44.169Z,14.23
2023-03-16T23:49:43.519Z,14.65
2023-03-16T23:52:13.455Z,13.80
2023-03-16T23:54:43.734Z,12.98
2023-03-16T23:57:14.575Z,12.93
2023-03-16T23:59:42.974Z,12.73
